Terminal Aerodrome Forecast
Issued by NWS

Home | Current Version | Previous Version | Text Only | Print | Product List | Glossary On
Versions: 1 2 3 4 5 6 7 8 9 10 11 12 13 14 15 16 17 18 19 20 21 22
000
FTUS43 KDTX 040522
TAFMBS
TAF
KMBS 040522Z 0406/0506 26005KT P6SM BKN080
     FM041600 27013G21KT P6SM BKN060 PROB30 0417/0420 4SM -SHRA
      BKN045
     FM050000 30008KT P6SM BKN060
     FM050300 31005KT P6SM SCT060=

USA.gov is the U.S. government's official web portal to all federal, state and local government web resources and services.